Time;durP1;ratioP1;P1;durP2;ratioP2;P2;SDS_P1;SDS_P2;PMS_P1;PMS_P2;Temp;Humidity;BMP_temperature;BMP_pressure;BME280_temperature;BME280_humidity;BME280_pressure;Samples;Min_cycle;Max_cycle;Signal;HPM_P1;HPM_P2
2023/10/05 00:03:47;;;;;;;4.30;2.60;;;;;;;20.75;45.50;98809.36;105080;1259;61286;-44
2023/10/05 00:06:16;;;;;;;5.20;2.80;;;;;;;20.74;45.46;98811.27;105247;1264;74418;-44
2023/10/05 00:08:47;;;;;;;4.50;2.50;;;;;;;20.74;45.47;98814.38;105242;1264;66090;-43
2023/10/05 00:11:30;;;;;;;3.90;2.90;;;;;;;20.73;45.47;98814.05;105208;1261;73032;-43
2023/10/05 00:14:06;;;;;;;3.60;2.50;;;;;;;20.73;45.58;98814.27;105035;1261;61375;-45
2023/10/05 00:16:36;;;;;;;3.60;2.60;;;;;;;20.73;45.63;98812.11;105053;1264;61179;-44
2023/10/05 00:19:11;;;;;;;5.60;2.90;;;;;;;20.73;45.47;98810.14;105254;1264;74561;-43
2023/10/05 00:21:48;;;;;;;4.00;2.70;;;;;;;20.73;45.52;98811.88;105283;1259;66188;-43
2023/10/05 00:24:25;;;;;;;3.80;2.40;;;;;;;20.73;45.53;98811.71;105253;1261;72615;-43
2023/10/05 00:26:56;;;;;;;4.30;2.50;;;;;;;20.73;45.77;98808.80;105267;1264;61369;-44
2023/10/05 00:29:40;;;;;;;8.80;2.90;;;;;;;20.72;45.71;98818.13;105262;1259;61467;-44
2023/10/05 00:32:14;;;;;;;5.40;2.70;;;;;;;20.73;45.64;98821.11;105220;1260;74601;-43
2023/10/05 00:34:44;;;;;;;5.10;2.90;;;;;;;20.72;45.59;98821.25;105284;1261;65984;-44
2023/10/05 00:37:11;;;;;;;4.60;2.90;;;;;;;20.72;45.68;98824.98;105249;1259;72331;-43
2023/10/05 00:39:41;;;;;;;4.60;2.70;;;;;;;20.72;45.72;98827.69;105224;1263;61286;-43
2023/10/05 00:42:09;;;;;;;3.40;2.40;;;;;;;20.72;45.69;98826.05;105254;1260;61180;-44
2023/10/05 00:44:39;;;;;;;4.00;2.60;;;;;;;20.72;45.74;98826.77;105286;1259;74629;-43
2023/10/05 00:47:06;;;;;;;5.20;2.80;;;;;;;20.71;45.82;98823.77;105088;1263;66021;-43
2023/10/05 00:49:57;;;;;;;4.20;2.80;;;;;;;20.71;45.77;98819.96;105268;1261;71539;-43
2023/10/05 00:52:28;;;;;;;5.20;3.00;;;;;;;20.71;45.70;98811.70;105026;1263;61169;-43
2023/10/05 00:55:16;;;;;;;3.30;2.50;;;;;;;20.71;45.86;98814.27;105168;1260;61264;-43
2023/10/05 00:57:44;;;;;;;6.10;2.60;;;;;;;20.71;45.74;98809.61;105224;1261;74678;-43
2023/10/05 01:00:27;;;;;;;6.70;3.00;;;;;;;20.71;45.82;98811.17;105247;1259;64358;-43
2023/10/05 01:03:11;;;;;;;5.30;3.20;;;;;;;20.70;45.86;98811.44;105523;1260;72647;-43
2023/10/05 01:05:50;;;;;;;4.80;2.90;;;;;;;20.69;46.00;98811.13;105150;1263;61333;-43
2023/10/05 01:08:23;;;;;;;4.80;2.90;;;;;;;20.69;45.82;98811.73;105121;1260;61386;-43
2023/10/05 01:10:53;;;;;;;4.80;2.40;;;;;;;20.69;45.88;98814.52;105050;1260;74374;-43
2023/10/05 01:13:28;;;;;;;3.60;2.80;;;;;;;20.68;45.91;98812.63;105257;1263;66132;-43
2023/10/05 01:15:57;;;;;;;4.10;2.60;;;;;;;20.68;45.81;98817.29;105234;1259;70950;-43
2023/10/05 01:18:26;;;;;;;4.30;3.00;;;;;;;20.68;45.78;98817.52;105321;1263;61260;-43
2023/10/05 01:20:57;;;;;;;4.00;2.60;;;;;;;20.67;45.92;98815.09;105312;1264;61270;-44
2023/10/05 01:23:29;;;;;;;3.10;2.50;;;;;;;20.68;45.81;98815.56;105299;1259;74662;-43
2023/10/05 01:25:56;;;;;;;3.90;2.40;;;;;;;20.67;45.92;98815.41;105241;1259;66818;-43
2023/10/05 01:28:24;;;;;;;4.40;2.70;;;;;;;20.68;45.84;98814.48;105247;1259;72630;-43
2023/10/05 01:30:52;;;;;;;5.10;2.80;;;;;;;20.67;45.89;98813.67;105199;1264;62081;-43
2023/10/05 01:33:21;;;;;;;4.20;2.80;;;;;;;20.67;45.89;98810.73;105084;1261;61375;-43
2023/10/05 01:35:48;;;;;;;4.10;2.70;;;;;;;20.66;45.89;98804.77;105014;1264;74585;-43
2023/10/05 01:38:15;;;;;;;3.90;2.70;;;;;;;20.67;45.97;98800.84;104992;1263;66178;-45
2023/10/05 01:40:47;;;;;;;4.50;2.90;;;;;;;20.66;45.95;98798.62;105195;1259;73059;-43
2023/10/05 01:43:15;;;;;;;5.90;2.60;;;;;;;20.66;46.01;98803.52;105157;1263;61280;-45
2023/10/05 01:45:44;;;;;;;4.20;2.70;;;;;;;20.65;45.99;98804.05;105135;1264;61347;-43
2023/10/05 01:48:14;;;;;;;5.50;2.70;;;;;;;20.65;46.03;98801.95;105296;1259;74727;-43
2023/10/05 01:50:44;;;;;;;4.00;2.70;;;;;;;20.65;46.02;98803.20;105138;1264;66396;-43
2023/10/05 01:53:15;;;;;;;5.10;2.90;;;;;;;20.65;46.05;98798.75;105031;1260;72605;-43
2023/10/05 01:55:47;;;;;;;4.40;2.80;;;;;;;20.65;45.91;98796.80;105086;1263;61268;-43
2023/10/05 01:58:25;;;;;;;3.60;2.60;;;;;;;20.64;45.93;98797.31;105244;1261;61551;-43
2023/10/05 02:00:54;;;;;;;5.80;2.70;;;;;;;20.63;45.98;98794.58;105210;1260;73310;-44
2023/10/05 02:03:25;;;;;;;5.30;2.90;;;;;;;20.63;45.95;98794.19;105261;1265;66490;-44
2023/10/05 02:05:58;;;;;;;4.40;2.80;;;;;;;20.63;46.07;98795.17;105205;1261;71243;-43
2023/10/05 02:08:27;;;;;;;4.50;2.60;;;;;;;20.62;46.04;98795.92;105249;1261;61197;-43
2023/10/05 02:10:54;;;;;;;5.30;2.60;;;;;;;20.61;46.02;98798.63;105230;1260;61378;-43
2023/10/05 02:13:23;;;;;;;4.00;2.90;;;;;;;20.62;46.05;98800.95;105013;1263;74694;-43
2023/10/05 02:15:55;;;;;;;4.10;3.00;;;;;;;20.61;46.18;98804.52;105016;1265;66104;-43
2023/10/05 02:18:26;;;;;;;4.30;2.70;;;;;;;20.61;46.06;98806.77;104964;1261;72698;-43
2023/10/05 02:21:05;;;;;;;4.90;3.00;;;;;;;20.60;46.05;98805.27;105113;1261;61402;-44
2023/10/05 02:23:42;;;;;;;4.60;2.90;;;;;;;20.60;46.09;98806.27;105201;1260;61328;-44
2023/10/05 02:26:23;;;;;;;4.00;2.90;;;;;;;20.60;46.05;98807.19;105185;1261;74603;-44
2023/10/05 02:28:51;;;;;;;4.30;2.70;;;;;;;20.59;46.09;98801.48;104960;1264;66156;-44
2023/10/05 02:31:20;;;;;;;4.70;2.80;;;;;;;20.59;46.19;98798.90;104904;1261;72702;-44
2023/10/05 02:33:48;;;;;;;6.30;2.60;;;;;;;20.58;46.27;98795.94;105099;1264;61264;-44
2023/10/05 02:36:26;;;;;;;3.70;2.60;;;;;;;20.58;46.16;98797.56;105025;1261;61338;-44
2023/10/05 02:38:53;;;;;;;3.50;2.70;;;;;;;20.58;46.15;98797.35;105043;1261;74550;-44
2023/10/05 02:41:25;;;;;;;3.90;2.80;;;;;;;20.58;46.20;98799.05;105051;1265;66127;-44
2023/10/05 02:43:54;;;;;;;4.50;2.90;;;;;;;20.58;46.16;98797.48;105122;1264;72337;-44
2023/10/05 02:46:25;;;;;;;4.20;2.80;;;;;;;20.57;46.19;98796.77;105199;1264;61265;-44
2023/10/05 02:48:53;;;;;;;7.70;2.70;;;;;;;20.58;46.07;98794.84;105202;1260;61375;-44
2023/10/05 02:51:20;;;;;;;3.80;2.70;;;;;;;20.57;46.11;98796.84;105195;1259;74622;-44
2023/10/05 02:53:52;;;;;;;6.90;3.00;;;;;;;20.57;46.06;98797.06;105158;1262;65921;-43
2023/10/05 02:56:26;;;;;;;5.50;2.80;;;;;;;20.56;46.16;98793.84;105011;1259;72676;-42
2023/10/05 02:58:56;;;;;;;4.90;3.10;;;;;;;20.56;46.15;98794.23;105196;1263;61328;-43
2023/10/05 03:01:23;;;;;;;4.30;2.50;;;;;;;20.55;46.23;98791.86;105184;1265;61157;-45
2023/10/05 03:03:51;;;;;;;4.10;2.80;;;;;;;20.55;46.15;98798.25;105315;1259;74431;-43
2023/10/05 03:06:22;;;;;;;5.20;2.40;;;;;;;20.55;46.19;98798.17;105253;1264;66107;-43
2023/10/05 03:08:54;;;;;;;3.90;2.60;;;;;;;20.54;46.19;98800.71;105023;1259;72280;-43
2023/10/05 03:11:21;;;;;;;3.60;2.80;;;;;;;20.54;46.06;98803.98;105076;1264;61259;-42
2023/10/05 03:13:50;;;;;;;4.30;2.50;;;;;;;20.54;46.24;98801.79;105157;1259;61304;-43
2023/10/05 03:16:21;;;;;;;3.70;2.70;;;;;;;20.53;46.13;98800.05;105268;1259;74610;-42
2023/10/05 03:18:49;;;;;;;4.10;2.60;;;;;;;20.53;46.17;98805.56;105146;1259;64911;-43
2023/10/05 03:21:18;;;;;;;4.30;3.10;;;;;;;20.52;46.15;98808.56;105124;1260;72703;-42
2023/10/05 03:23:45;;;;;;;3.60;2.80;;;;;;;20.53;46.15;98809.27;105048;1263;61284;-43
2023/10/05 03:26:16;;;;;;;4.00;2.70;;;;;;;20.52;45.95;98801.02;105045;1260;61289;-43
2023/10/05 03:28:44;;;;;;;3.20;2.60;;;;;;;20.52;46.03;98799.85;105081;1260;75150;-43
2023/10/05 03:31:23;;;;;;;4.30;2.70;;;;;;;20.52;46.09;98802.27;105260;1263;66304;-42
2023/10/05 03:33:52;;;;;;;4.20;2.80;;;;;;;20.52;46.12;98807.45;105257;1259;71103;-42
2023/10/05 03:36:19;;;;;;;3.70;2.90;;;;;;;20.50;46.06;98809.05;105264;1260;61241;-42
2023/10/05 03:38:55;;;;;;;4.50;2.60;;;;;;;20.50;46.02;98810.90;105263;1260;61424;-42
2023/10/05 03:41:26;;;;;;;4.20;2.60;;;;;;;20.50;46.07;98814.71;105230;1264;74534;-43
2023/10/05 03:44:01;;;;;;;4.90;3.00;;;;;;;20.50;46.03;98811.89;105293;1264;64920;-42
2023/10/05 03:46:28;;;;;;;6.30;2.70;;;;;;;20.50;46.13;98815.77;105156;1259;72678;-43
2023/10/05 03:49:02;;;;;;;4.60;2.70;;;;;;;20.49;46.06;98814.52;105244;1263;61288;-43
2023/10/05 03:51:30;;;;;;;3.80;2.70;;;;;;;20.49;46.09;98816.30;105069;1259;61278;-43
2023/10/05 03:53:57;;;;;;;3.40;2.80;;;;;;;20.49;46.18;98818.54;105145;1260;74636;-43
2023/10/05 03:56:27;;;;;;;4.20;2.90;;;;;;;20.48;46.23;98814.09;105052;1263;66279;-43
2023/10/05 03:58:55;;;;;;;4.30;2.70;;;;;;;20.48;46.14;98812.52;104980;1260;72755;-45
2023/10/05 04:01:22;;;;;;;4.00;2.50;;;;;;;20.48;46.25;98805.45;104833;1259;61363;-44
2023/10/05 04:03:50;;;;;;;4.00;2.70;;;;;;;20.47;46.29;98805.73;104838;1260;61397;-43
2023/10/05 04:06:18;;;;;;;4.30;2.70;;;;;;;20.47;46.22;98806.13;104984;1260;73376;-43
2023/10/05 04:08:59;;;;;;;3.50;2.60;;;;;;;20.46;46.23;98804.48;105071;1264;66298;-45
2023/10/05 04:11:27;;;;;;;3.70;2.70;;;;;;;20.46;46.23;98799.10;105034;1259;72634;-44
2023/10/05 04:13:54;;;;;;;4.20;2.90;;;;;;;20.46;46.20;98800.89;105129;1263;61324;-43
2023/10/05 04:16:26;;;;;;;4.60;2.70;;;;;;;20.45;46.18;98804.77;105175;1259;61267;-43
2023/10/05 04:18:54;;;;;;;3.50;2.60;;;;;;;20.45;46.21;98806.79;105148;1261;74703;-44
2023/10/05 04:21:22;;;;;;;3.50;2.60;;;;;;;20.45;46.29;98808.48;105233;1264;66986;-43
2023/10/05 04:23:50;;;;;;;4.10;2.60;;;;;;;20.45;46.42;98809.09;105190;1260;72657;-44
2023/10/05 04:26:18;;;;;;;5.70;2.50;;;;;;;20.45;46.32;98810.88;105078;1262;61263;-45
2023/10/05 04:28:52;;;;;;;5.50;2.70;;;;;;;20.45;46.30;98810.02;105191;1259;61395;-43
2023/10/05 04:31:27;;;;;;;4.00;2.60;;;;;;;20.45;46.32;98808.41;105023;1260;73484;-43
2023/10/05 04:33:55;;;;;;;4.00;2.90;;;;;;;20.44;46.34;98805.41;105116;1263;65314;-44
2023/10/05 04:36:25;;;;;;;3.70;2.50;;;;;;;20.44;46.30;98805.87;105038;1260;72722;-44
2023/10/05 04:38:54;;;;;;;3.60;2.50;;;;;;;20.44;46.32;98802.30;105113;1264;61269;-44
2023/10/05 04:41:28;;;;;;;3.30;2.40;;;;;;;20.44;46.29;98799.27;105203;1259;61206;-43
2023/10/05 04:43:56;;;;;;;4.10;2.60;;;;;;;20.44;46.44;98800.89;105232;1261;73704;-45
2023/10/05 04:46:24;;;;;;;4.50;2.50;;;;;;;20.44;46.31;98803.46;105045;1263;66414;-43
2023/10/05 04:49:12;;;;;;;3.40;2.40;;;;;;;20.44;46.32;98800.35;105235;1259;73045;-44
2023/10/05 04:51:40;;;;;;;5.30;2.60;;;;;;;20.44;46.37;98801.77;105174;1264;61276;-44
2023/10/05 04:54:10;;;;;;;4.00;2.50;;;;;;;20.43;46.30;98800.66;105202;1259;61290;-43
2023/10/05 05:07:06;;;;;;;4.80;2.70;;;;;;;20.56;46.76;98814.21;105225;1259;61379;-40
2023/10/05 05:09:35;;;;;;;4.20;2.70;;;;;;;20.61;46.92;98815.41;105040;1259;75757;-42
2023/10/05 05:12:03;;;;;;;4.40;3.00;;;;;;;20.66;47.16;98811.60;105016;1260;65974;-43
2023/10/05 05:14:32;;;;;;;7.40;2.90;;;;;;;20.69;47.51;98809.02;105217;1259;73713;-43
2023/10/05 05:17:04;;;;;;;4.10;2.30;;;;;;;20.73;47.35;98810.91;105205;1259;61320;-42
2023/10/05 05:19:33;;;;;;;5.70;2.60;;;;;;;20.75;47.35;98807.52;105182;1260;61398;-41
2023/10/05 05:22:02;;;;;;;5.50;2.60;;;;;;;20.76;47.40;98802.17;105083;1260;75709;-41
2023/10/05 05:24:30;;;;;;;5.30;3.00;;;;;;;20.77;47.26;98797.94;104928;1263;66697;-41
2023/10/05 05:27:04;;;;;;;4.10;2.50;;;;;;;20.80;47.43;98798.10;104663;1262;72425;-41
2023/10/05 05:29:34;;;;;;;6.40;2.70;;;;;;;20.83;47.64;98800.46;104937;1263;61402;-41
2023/10/05 05:32:07;;;;;;;7.50;2.80;;;;;;;20.84;47.72;98806.89;104710;1260;61365;-41
2023/10/05 05:34:34;;;;;;;6.20;2.80;;;;;;;20.86;47.52;98811.61;104874;1259;74601;-41
2023/10/05 05:37:01;;;;;;;4.80;2.60;;;;;;;20.88;47.56;98810.36;104908;1263;66183;-42
2023/10/05 05:39:32;;;;;;;4.60;2.80;;;;;;;20.89;47.60;98808.62;104834;1260;72311;-42
2023/10/05 05:42:00;;;;;;;5.30;2.80;;;;;;;20.91;47.54;98806.71;105169;1264;61316;-42
2023/10/05 05:44:28;;;;;;;4.90;2.90;;;;;;;20.91;47.55;98805.73;104996;1260;61481;-42
2023/10/05 05:46:59;;;;;;;5.70;2.90;;;;;;;20.94;47.47;98805.17;104852;1264;75599;-42
2023/10/05 05:49:27;;;;;;;4.60;2.70;;;;;;;20.94;47.42;98807.90;105165;1262;67150;-42
2023/10/05 05:51:57;;;;;;;3.60;2.60;;;;;;;20.95;47.49;98806.55;105196;1259;73568;-42
2023/10/05 05:54:30;;;;;;;5.40;2.50;;;;;;;20.96;47.54;98805.56;105202;1264;61286;-43
2023/10/05 05:56:57;;;;;;;3.70;2.30;;;;;;;20.96;47.36;98807.60;105021;1259;61295;-41
2023/10/05 05:59:25;;;;;;;14.10;3.40;;;;;;;20.97;47.37;98807.63;105039;1259;75645;-40
2023/10/05 06:01:53;;;;;;;81.50;5.80;;;;;;;20.98;47.51;98808.76;105007;1259;66124;-40
2023/10/05 06:04:21;;;;;;;38.30;4.60;;;;;;;20.99;47.33;98800.05;105202;1260;73317;-40
2023/10/05 06:06:48;;;;;;;33.50;4.70;;;;;;;21.00;47.30;98801.80;105262;1264;61926;-41
2023/10/05 06:09:22;;;;;;;32.60;4.10;;;;;;;21.00;47.37;98804.23;105257;1265;61207;-40
2023/10/05 06:11:49;;;;;;;33.40;3.90;;;;;;;21.00;47.32;98797.39;104948;1259;74099;-40
2023/10/05 06:14:17;;;;;;;20.10;3.70;;;;;;;21.00;47.33;98792.80;104858;1263;67555;-42
2023/10/05 06:16:45;;;;;;;17.10;3.90;;;;;;;21.02;47.44;98794.95;104881;1260;72463;-43
2023/10/05 06:19:13;;;;;;;25.70;3.90;;;;;;;21.04;47.42;98799.02;105043;1262;63158;-43
2023/10/05 06:21:42;;;;;;;12.50;3.30;;;;;;;21.06;47.44;98796.06;105045;1260;61345;-41
2023/10/05 06:24:10;;;;;;;12.90;3.70;;;;;;;21.08;47.67;98793.69;104958;1264;76080;-44
2023/10/05 06:26:38;;;;;;;12.20;3.20;;;;;;;21.10;47.76;98790.89;105383;1263;66275;-43
2023/10/05 06:29:08;;;;;;;12.30;2.90;;;;;;;21.12;47.67;98789.88;105293;1259;73434;-43
2023/10/05 06:31:36;;;;;;;8.00;3.70;;;;;;;21.13;47.66;98795.67;104977;1265;61392;-43
2023/10/05 06:34:10;;;;;;;12.80;3.40;;;;;;;21.14;47.66;98795.55;105040;1264;61369;-43
2023/10/05 06:36:37;;;;;;;9.90;3.30;;;;;;;21.14;47.52;98803.01;104780;1265;77231;-42
2023/10/05 06:39:06;;;;;;;11.40;3.60;;;;;;;21.15;47.51;98800.94;104981;1263;65706;-42
2023/10/05 06:41:34;;;;;;;10.30;3.20;;;;;;;21.16;47.62;98805.01;104943;1260;72069;-43
2023/10/05 06:44:02;;;;;;;14.30;3.30;;;;;;;21.16;47.62;98796.06;104888;1263;61288;-43
2023/10/05 06:46:30;;;;;;;10.20;3.20;;;;;;;21.16;47.52;98798.53;104944;1263;61173;-41
2023/10/05 06:48:57;;;;;;;7.00;2.60;;;;;;;21.15;47.49;98802.17;105059;1264;75674;-41
2023/10/05 06:51:28;;;;;;;14.10;3.40;;;;;;;21.15;47.57;98804.36;104799;1263;66045;-41
2023/10/05 06:53:59;;;;;;;7.60;3.10;;;;;;;21.15;47.49;98795.17;105098;1262;73834;-41
2023/10/05 06:56:26;;;;;;;6.70;3.10;;;;;;;21.15;47.26;98792.55;105149;1264;61370;-41
2023/10/05 06:58:54;;;;;;;10.60;3.20;;;;;;;21.15;47.35;98794.46;105062;1260;61370;-41
2023/10/05 07:01:22;;;;;;;9.70;3.40;;;;;;;21.15;47.41;98793.15;105040;1264;75507;-43
2023/10/05 07:03:52;;;;;;;10.40;3.40;;;;;;;21.14;47.32;98794.54;104728;1265;66520;-41
2023/10/05 07:06:22;;;;;;;8.60;3.50;;;;;;;21.14;47.39;98795.08;104936;1262;73655;-43
2023/10/05 07:08:52;;;;;;;6.40;3.20;;;;;;;21.15;47.35;98786.30;105240;1262;61308;-44
2023/10/05 07:11:19;;;;;;;6.50;3.60;;;;;;;21.16;47.49;98780.64;104943;1261;61342;-42
2023/10/05 07:13:47;;;;;;;8.70;3.40;;;;;;;21.16;47.76;98780.97;108785;1259;75677;-43
2023/10/05 07:16:17;;;;;;;6.90;3.40;;;;;;;21.16;47.62;98781.73;105141;1263;67042;-44
2023/10/05 07:18:45;;;;;;;8.80;3.00;;;;;;;21.16;47.60;98780.88;105093;1263;73728;-43
2023/10/05 07:21:13;;;;;;;9.40;3.60;;;;;;;21.16;47.56;98782.27;105143;1265;61359;-42
2023/10/05 07:23:41;;;;;;;7.40;3.60;;;;;;;21.15;47.50;98780.39;104970;1261;61369;-43
2023/10/05 07:26:11;;;;;;;8.50;3.10;;;;;;;21.14;47.39;98781.69;105171;1262;73839;-42
2023/10/05 07:28:40;;;;;;;5.80;3.40;;;;;;;21.14;47.32;98787.52;105182;1264;65752;-44
2023/10/05 07:31:09;;;;;;;4.90;3.00;;;;;;;21.13;47.45;98791.86;105088;1261;73707;-43
2023/10/05 07:33:36;;;;;;;5.40;3.30;;;;;;;21.13;47.38;98792.09;104941;1261;61299;-43
2023/10/05 07:36:05;;;;;;;8.40;3.20;;;;;;;21.13;47.39;98795.67;105192;1260;61299;-42
2023/10/05 07:38:32;;;;;;;7.50;3.40;;;;;;;21.13;47.47;98799.27;105149;1263;75643;-43
2023/10/05 07:41:03;;;;;;;4.90;3.30;;;;;;;21.13;47.52;98803.30;105164;1264;67382;-43
2023/10/05 07:43:32;;;;;;;6.50;3.30;;;;;;;21.13;47.45;98801.41;105239;1261;73613;-43
2023/10/05 07:46:04;;;;;;;5.70;3.10;;;;;;;21.12;47.45;98798.91;105043;1264;61251;-41
2023/10/05 07:48:31;;;;;;;5.50;3.10;;;;;;;21.12;47.54;98802.48;105127;1262;61367;-44
2023/10/05 07:50:59;;;;;;;6.00;3.40;;;;;;;21.12;47.37;98797.36;104995;1262;75659;-41
2023/10/05 07:53:31;;;;;;;6.60;3.30;;;;;;;21.13;47.41;98805.23;105004;1267;66974;-42
2023/10/05 07:55:58;;;;;;;7.60;3.60;;;;;;;21.13;47.48;98801.34;104929;1262;72924;-42
2023/10/05 07:58:26;;;;;;;5.80;3.20;;;;;;;21.13;47.38;98796.67;104992;1263;61951;-41
2023/10/05 08:00:55;;;;;;;7.90;3.30;;;;;;;21.13;47.61;98799.17;105642;1259;61181;-43
2023/10/05 08:03:26;;;;;;;6.10;3.10;;;;;;;21.13;47.52;98797.14;107549;1261;75341;-42
2023/10/05 08:05:55;;;;;;;6.70;3.20;;;;;;;21.13;47.63;98798.85;105122;1263;67422;-42
2023/10/05 08:08:23;;;;;;;9.70;3.60;;;;;;;21.13;47.61;98797.52;105012;1262;73873;-41
2023/10/05 08:10:51;;;;;;;6.70;3.40;;;;;;;21.12;47.65;98797.36;105420;1263;61376;-43
2023/10/05 08:13:18;;;;;;;5.60;3.10;;;;;;;21.13;47.63;98796.98;104896;1265;61417;-43
2023/10/05 08:15:48;;;;;;;6.00;3.40;;;;;;;21.13;47.70;98795.12;104801;1265;75722;-43
2023/10/05 08:18:17;;;;;;;6.60;3.30;;;;;;;21.13;47.63;98796.92;105692;1260;67217;-47
2023/10/05 08:20:44;;;;;;;9.00;3.40;;;;;;;21.14;47.81;98801.44;105005;1259;73392;-41
2023/10/05 08:23:13;;;;;;;7.80;3.50;;;;;;;21.13;47.77;98795.59;104967;1259;61256;-42
2023/10/05 08:25:42;;;;;;;8.30;3.70;;;;;;;21.13;47.86;98797.31;105018;1262;61395;-43
2023/10/05 08:28:49;;;;;;;5.70;3.20;;;;;;;21.14;47.82;98796.70;105022;1264;74625;-43
2023/10/05 08:31:23;;;;;;;7.60;3.30;;;;;;;21.14;47.96;98795.48;105053;1265;66180;-42
2023/10/05 08:33:54;;;;;;;6.90;3.70;;;;;;;21.15;47.94;98789.89;105807;1262;73780;-41
2023/10/05 08:36:22;;;;;;;9.30;3.90;;;;;;;21.16;48.04;98787.43;104828;1259;61386;-41
2023/10/05 08:38:49;;;;;;;10.10;3.80;;;;;;;21.17;48.08;98782.41;104851;1259;61334;-41
2023/10/05 08:41:31;;;;;;;7.90;4.00;;;;;;;21.17;48.08;98783.58;104921;1265;75575;-42
2023/10/05 08:43:59;;;;;;;7.20;3.60;;;;;;;21.18;48.12;98782.29;104570;1259;67186;-42
2023/10/05 08:46:28;;;;;;;7.10;3.80;;;;;;;21.19;48.31;98781.09;108688;1260;74191;-42
2023/10/05 08:48:56;;;;;;;12.20;3.40;;;;;;;21.19;48.55;98776.56;105164;1262;61590;-42
2023/10/05 08:51:24;;;;;;;7.00;3.50;;;;;;;21.19;48.63;98762.23;104998;1262;61228;-40
2023/10/05 08:53:55;;;;;;;8.10;3.90;;;;;;;21.20;48.98;98761.11;105143;1259;73751;-41
2023/10/05 08:56:22;;;;;;;7.70;3.90;;;;;;;21.21;49.30;98756.45;105078;1262;67072;-44
2023/10/05 08:58:52;;;;;;;8.60;3.70;;;;;;;21.23;49.20;98761.48;104841;1262;73434;-48
2023/10/05 09:01:35;;;;;;;8.90;3.60;;;;;;;21.23;49.21;98754.42;104993;1260;61308;-48
2023/10/05 09:07:08;;;;;;;10.60;4.10;;;;;;;21.30;50.50;98751.13;104845;1265;75473;-48
2023/10/05 09:09:54;;;;;;;8.30;3.30;;;;;;;21.38;51.26;98743.38;104839;1264;67512;-46
2023/10/05 09:17:55;;;;;;;11.80;3.30;;;;;;;21.61;51.33;98730.60;105588;1262;61246;-44
2023/10/05 09:20:24;;;;;;;8.90;3.70;;;;;;;21.66;51.12;98722.89;105232;1263;75656;-48
2023/10/05 09:22:53;;;;;;;8.80;3.60;;;;;;;21.71;50.85;98719.84;105509;1264;67168;-49
2023/10/05 09:25:27;;;;;;;7.80;3.60;;;;;;;21.75;50.72;98721.43;104921;1262;73480;-53
2023/10/05 09:27:57;;;;;;;7.20;3.60;;;;;;;21.79;50.63;98723.19;105265;1262;61453;-49
2023/10/05 09:30:30;;;;;;;5.70;3.00;;;;;;;21.82;50.23;98718.91;104822;1267;61291;-49
2023/10/05 09:33:07;;;;;;;7.50;3.30;;;;;;;21.85;49.99;98714.42;105026;1263;75406;-49
2023/10/05 09:35:36;;;;;;;9.60;3.30;;;;;;;21.89;49.89;98718.57;104961;1261;67521;-49
2023/10/05 09:38:42;;;;;;;8.40;3.30;;;;;;;21.91;49.84;98714.91;105046;1263;73120;-51
2023/10/05 09:41:18;;;;;;;6.50;2.90;;;;;;;21.95;49.84;98709.56;105344;1264;61395;-45
2023/10/05 09:44:10;;;;;;;5.10;3.20;;;;;;;21.97;49.60;98707.91;104954;1259;61292;-51
2023/10/05 09:46:38;;;;;;;7.70;3.40;;;;;;;22.00;49.46;98704.97;104424;1265;74275;-49
2023/10/05 09:49:07;;;;;;;6.00;2.90;;;;;;;22.03;49.43;98709.00;104401;1265;67449;-48
2023/10/05 09:51:35;;;;;;;7.40;3.20;;;;;;;22.05;49.36;98703.15;104824;1265;73548;-54
2023/10/05 09:54:03;;;;;;;5.80;3.10;;;;;;;22.07;49.24;98706.80;104924;1265;61344;-51
2023/10/05 09:56:41;;;;;;;6.00;3.10;;;;;;;22.09;49.12;98706.85;105202;1259;61385;-49
2023/10/05 09:59:21;;;;;;;4.60;3.10;;;;;;;22.10;48.80;98703.69;105752;1262;74581;-50
2023/10/05 10:01:58;;;;;;;5.80;2.80;;;;;;;22.12;48.60;98696.73;105213;1267;64841;-49
2023/10/05 10:04:42;;;;;;;6.60;3.00;;;;;;;22.14;48.74;98692.02;104949;1265;73860;-44
2023/10/05 10:09:55;;;;;;;5.70;3.50;;;;;;;22.16;48.73;98688.17;105386;1259;61562;-47
2023/10/05 10:12:57;;;;;;;9.60;4.00;;;;;;;22.19;48.94;98677.72;105305;1264;61298;-45
2023/10/05 10:15:58;;;;;;;9.30;4.30;;;;;;;22.19;48.61;98672.17;105318;1263;77394;-46
2023/10/05 10:18:37;;;;;;;15.40;4.50;;;;;;;22.17;48.79;98666.93;104907;1260;67116;-47
2023/10/05 10:21:12;;;;;;;13.60;4.90;;;;;;;22.17;48.57;98663.64;104921;1259;73641;-44
2023/10/05 10:23:44;;;;;;;8.10;4.00;;;;;;;22.17;48.15;98656.16;104734;1268;61280;-44
2023/10/05 10:26:16;;;;;;;6.90;4.30;;;;;;;22.14;47.65;98654.52;107330;1266;61309;-44
2023/10/05 10:31:47;;;;;;;8.20;4.40;;;;;;;22.11;47.35;98633.94;104786;1264;66072;-44
2023/10/05 10:34:41;;;;;;;12.60;3.70;;;;;;;22.11;47.37;98634.55;108910;1259;72646;-45
2023/10/05 10:37:10;;;;;;;7.60;4.50;;;;;;;22.11;47.19;98624.66;105662;1260;61297;-45
2023/10/05 10:39:38;;;;;;;9.00;4.10;;;;;;;22.11;47.14;98625.45;104964;1259;61202;-47
2023/10/05 10:42:09;;;;;;;14.60;4.40;;;;;;;22.12;47.03;98619.94;104939;1263;75456;-46
2023/10/05 10:47:17;;;;;;;7.80;3.90;;;;;;;22.21;47.50;98616.05;104987;1264;73917;-44
2023/10/05 10:50:11;;;;;;;7.90;3.60;;;;;;;22.26;47.38;98619.92;105118;1266;61466;-46
2023/10/05 10:52:39;;;;;;;12.40;4.00;;;;;;;22.32;47.02;98609.70;105792;1260;61245;-48
2023/10/05 10:55:14;;;;;;;7.40;3.90;;;;;;;22.35;46.97;98604.02;105003;1263;76099;-47
2023/10/05 10:57:47;;;;;;;9.50;4.30;;;;;;;22.38;46.74;98596.60;105120;1265;66569;-46
2023/10/05 11:03:10;;;;;;;9.00;3.90;;;;;;;22.40;45.71;98600.09;105521;1263;61272;-47
2023/10/05 11:05:40;;;;;;;6.50;3.60;;;;;;;22.40;45.64;98593.45;106192;1260;61162;-47
2023/10/05 11:08:12;;;;;;;6.60;3.50;;;;;;;22.40;45.46;98586.57;105240;1261;75588;-46
2023/10/05 11:10:42;;;;;;;6.80;3.60;;;;;;;22.40;45.07;98580.73;105199;1263;66908;-46
2023/10/05 11:13:20;;;;;;;6.50;3.60;;;;;;;22.40;44.92;98579.17;105235;1263;73714;-46
2023/10/05 11:15:57;;;;;;;8.00;3.20;;;;;;;22.39;44.97;98576.11;105132;1263;61366;-46
2023/10/05 11:18:39;;;;;;;7.40;3.90;;;;;;;22.38;44.94;98572.11;105145;1263;61345;-43
2023/10/05 11:21:23;;;;;;;5.60;3.20;;;;;;;22.38;45.22;98570.02;105094;1259;74756;-45
2023/10/05 11:23:58;;;;;;;5.60;3.60;;;;;;;22.38;44.78;98575.31;105096;1263;65968;-45
2023/10/05 11:29:20;;;;;;;6.20;3.30;;;;;;;22.33;44.48;98572.61;105119;1264;61254;-46
2023/10/05 11:31:50;;;;;;;7.50;3.40;;;;;;;22.32;44.60;98576.50;105133;1265;61522;-46
2023/10/05 11:34:39;;;;;;;5.90;3.20;;;;;;;22.32;44.60;98576.40;106929;1261;75812;-42
2023/10/05 11:37:26;;;;;;;6.60;3.60;;;;;;;22.32;44.79;98566.50;106443;1262;66302;-41
2023/10/05 11:39:59;;;;;;;6.10;3.70;;;;;;;22.31;44.81;98560.48;105150;1259;73759;-43
2023/10/05 11:42:35;;;;;;;4.50;3.20;;;;;;;22.30;44.48;98554.76;105108;1264;61267;-42
2023/10/05 11:45:13;;;;;;;6.40;3.60;;;;;;;22.28;44.92;98552.23;105245;1263;61968;-41
2023/10/05 11:47:46;;;;;;;5.60;3.30;;;;;;;22.26;44.84;98551.40;105972;1263;75674;-41
2023/10/05 11:50:25;;;;;;;7.90;3.20;;;;;;;22.25;44.80;98549.17;105108;1259;67316;-42
2023/10/05 11:52:53;;;;;;;7.50;3.70;;;;;;;22.23;44.91;98547.19;105757;1259;74124;-42
2023/10/05 11:55:20;;;;;;;6.90;3.80;;;;;;;22.23;44.92;98547.34;105071;1265;61196;-42
2023/10/05 11:57:48;;;;;;;8.30;3.40;;;;;;;22.21;44.84;98537.48;105475;1259;61283;-41
2023/10/05 12:00:16;;;;;;;7.30;3.50;;;;;;;22.20;44.69;98534.27;106049;1265;75610;-43
2023/10/05 12:02:44;;;;;;;6.00;3.30;;;;;;;22.19;44.59;98531.88;108879;1259;66894;-42
2023/10/05 12:05:12;;;;;;;8.00;3.40;;;;;;;22.19;44.60;98530.34;108804;1260;73584;-42
2023/10/05 12:07:45;;;;;;;6.00;3.50;;;;;;;22.19;44.72;98521.45;108860;1259;60418;-42
2023/10/05 12:10:13;;;;;;;6.80;3.10;;;;;;;22.20;44.58;98517.48;106638;1260;61139;-44
2023/10/05 12:12:41;;;;;;;6.30;3.30;;;;;;;22.22;44.73;98520.42;105218;1259;75203;-44
2023/10/05 12:15:13;;;;;;;7.10;3.30;;;;;;;22.22;44.53;98512.09;105112;1265;66002;-43
2023/10/05 12:17:40;;;;;;;6.80;3.50;;;;;;;22.23;44.65;98503.70;104853;1266;72383;-43
2023/10/05 12:20:12;;;;;;;8.00;3.60;;;;;;;22.25;44.68;98498.75;105376;1263;61389;-43